createdAt,value
2023-04-10T00:00:37.948Z,9.33
2023-04-10T00:03:05.409Z,9.30
2023-04-10T00:05:32.821Z,9.27
2023-04-10T00:07:59.809Z,9.27
2023-04-10T00:10:29.229Z,9.23
2023-04-10T00:12:56.404Z,9.20
2023-04-10T00:15:23.504Z,9.16
2023-04-10T00:17:54.802Z,9.15
2023-04-10T00:20:23.125Z,9.12
2023-04-10T00:22:50.282Z,9.11
2023-04-10T00:25:17.470Z,9.10
2023-04-10T00:27:44.419Z,9.07
2023-04-10T00:30:11.553Z,9.06
2023-04-10T00:32:38.731Z,9.04
2023-04-10T00:35:06.982Z,9.00
2023-04-10T00:37:33.884Z,8.99
2023-04-10T00:40:01.057Z,8.99
2023-04-10T00:42:28.073Z,8.96
2023-04-10T00:44:55.009Z,8.94
2023-04-10T00:47:22.329Z,8.93
2023-04-10T00:49:49.470Z,8.93
2023-04-10T00:52:16.541Z,8.93
2023-04-10T00:54:43.511Z,8.92
2023-04-10T00:57:11.039Z,8.90
2023-04-10T00:59:39.152Z,8.89
2023-04-10T01:02:06.189Z,8.86
2023-04-10T01:04:34.303Z,8.86
2023-04-10T01:07:39.786Z,8.82
2023-04-10T01:10:29.426Z,8.77
2023-04-10T01:13:05.610Z,8.74
2023-04-10T01:15:49.396Z,8.71
2023-04-10T01:18:36.870Z,8.68
2023-04-10T01:21:09.176Z,8.65
2023-04-10T01:23:54.499Z,8.63
2023-04-10T01:26:51.956Z,8.61
2023-04-10T01:29:21.043Z,8.57
2023-04-10T01:31:58.193Z,8.55
2023-04-10T01:34:33.419Z,8.54
2023-04-10T01:37:04.750Z,8.50
2023-04-10T01:39:39.307Z,8.46
2023-04-10T01:42:09.041Z,8.45
2023-04-10T01:44:44.087Z,8.42
2023-04-10T01:47:14.161Z,8.40
2023-04-10T01:49:44.553Z,8.38
2023-04-10T01:52:16.533Z,8.36
2023-04-10T01:54:48.993Z,8.34
2023-04-10T01:57:22.879Z,8.31
2023-04-10T01:59:53.505Z,8.31
2023-04-10T02:02:20.582Z,8.29
2023-04-10T02:04:51.524Z,8.26
2023-04-10T02:07:31.463Z,8.24
2023-04-10T02:10:19.133Z,8.22
2023-04-10T02:12:56.484Z,8.20
2023-04-10T02:15:26.584Z,8.18
2023-04-10T02:17:56.401Z,8.19
2023-04-10T02:20:24.430Z,8.17
2023-04-10T02:22:53.143Z,8.16
2023-04-10T02:25:20.457Z,8.17
2023-04-10T02:27:49.109Z,8.15
2023-04-10T02:30:17.920Z,8.15
2023-04-10T02:32:45.029Z,8.13
2023-04-10T02:35:12.147Z,8.12
2023-04-10T02:37:39.219Z,8.11
2023-04-10T02:40:08.361Z,8.11
2023-04-10T02:42:44.771Z,8.09
2023-04-10T02:45:11.819Z,8.07
2023-04-10T02:47:42.463Z,8.05
2023-04-10T02:50:10.601Z,8.04
2023-04-10T02:52:40.527Z,8.02
2023-04-10T02:55:07.774Z,8.03
2023-04-10T02:57:37.296Z,8.02
2023-04-10T03:00:05.305Z,7.99
2023-04-10T03:02:53.746Z,7.95
2023-04-10T03:05:21.515Z,7.96
2023-04-10T03:07:48.569Z,7.91
2023-04-10T03:10:15.791Z,7.88
2023-04-10T03:12:42.724Z,7.82
2023-04-10T03:15:10.146Z,7.79
2023-04-10T03:17:37.089Z,7.75
2023-04-10T03:20:06.896Z,7.74
2023-04-10T03:22:34.615Z,7.71
2023-04-10T03:25:01.567Z,7.69
2023-04-10T03:27:32.147Z,7.66
2023-04-10T03:29:59.160Z,7.63
2023-04-10T03:32:28.030Z,7.62
2023-04-10T03:34:55.065Z,7.61
2023-04-10T03:37:22.050Z,7.58
2023-04-10T03:39:48.966Z,7.58
2023-04-10T03:42:15.920Z,7.57
2023-04-10T03:44:42.981Z,7.55
2023-04-10T03:47:10.431Z,7.53
2023-04-10T03:49:37.430Z,7.49
2023-04-10T03:52:06.761Z,7.46
2023-04-10T03:54:33.777Z,7.41
2023-04-10T03:57:01.547Z,7.40
2023-04-10T03:59:37.779Z,7.36
2023-04-10T04:02:08.002Z,7.33
2023-04-10T04:04:35.601Z,7.31
2023-04-10T04:07:20.117Z,7.29
2023-04-10T04:10:14.204Z,7.26
2023-04-10T04:12:52.173Z,7.26
2023-04-10T04:15:26.074Z,7.25
2023-04-10T04:17:58.313Z,7.22
2023-04-10T04:20:35.640Z,7.21
2023-04-10T04:23:20.301Z,7.20
2023-04-10T04:26:06.794Z,7.22
2023-04-10T04:28:52.081Z,7.20
2023-04-10T04:31:32.188Z,7.21
2023-04-10T04:34:08.035Z,7.20
2023-04-10T04:37:05.539Z,7.21
2023-04-10T04:39:38.776Z,7.20
2023-04-10T04:42:16.504Z,7.21
2023-04-10T04:45:02.144Z,7.24
2023-04-10T04:47:48.105Z,7.21
2023-04-10T04:50:19.963Z,7.21
2023-04-10T04:52:55.883Z,7.18
2023-04-10T04:55:34.237Z,7.20
2023-04-10T04:58:24.639Z,7.20
2023-04-10T05:01:01.847Z,7.20
2023-04-10T05:03:51.684Z,7.20
2023-04-10T05:06:55.160Z,7.22
2023-04-10T05:09:48.201Z,7.20
2023-04-10T05:12:34.233Z,7.22
2023-04-10T05:15:18.161Z,7.23
2023-04-10T05:18:02.456Z,7.21
2023-04-10T05:20:48.157Z,7.21
2023-04-10T05:23:25.256Z,7.22
2023-04-10T05:25:54.779Z,7.21
2023-04-10T05:28:42.007Z,7.18
2023-04-10T05:31:27.446Z,7.17
2023-04-10T05:34:00.604Z,7.16
2023-04-10T05:36:51.265Z,7.16
2023-04-10T05:39:22.843Z,7.15
2023-04-10T05:42:13.440Z,7.15
2023-04-10T05:44:53.765Z,7.13
2023-04-10T05:47:52.899Z,7.14
2023-04-10T05:50:38.584Z,7.13
2023-04-10T05:53:31.242Z,7.14
2023-04-10T05:56:26.212Z,7.17
2023-04-10T05:59:28.487Z,7.17
2023-04-10T06:02:14.044Z,7.20
2023-04-10T06:04:41.150Z,7.20
2023-04-10T06:07:08.262Z,7.21
2023-04-10T06:09:35.318Z,7.22
2023-04-10T06:12:07.259Z,7.26
2023-04-10T06:14:35.550Z,7.30
2023-04-10T06:17:03.084Z,7.35
2023-04-10T06:19:30.731Z,7.45
2023-04-10T06:21:57.681Z,7.51
2023-04-10T06:24:24.712Z,7.58
2023-04-10T06:26:52.167Z,7.67
2023-04-10T06:29:19.178Z,7.71
2023-04-10T06:31:46.397Z,7.76
2023-04-10T06:34:13.865Z,7.82
2023-04-10T06:36:50.572Z,7.89
2023-04-10T06:39:17.810Z,7.96
2023-04-10T06:41:44.819Z,8.05
2023-04-10T06:44:23.754Z,8.13
2023-04-10T06:46:50.763Z,8.19
2023-04-10T06:49:17.748Z,8.25
2023-04-10T06:51:46.064Z,8.38
2023-04-10T06:54:13.002Z,8.44
2023-04-10T06:56:39.960Z,8.54
2023-04-10T06:59:06.861Z,8.61
2023-04-10T07:01:33.838Z,8.72
2023-04-10T07:04:01.107Z,8.76
2023-04-10T07:06:28.908Z,8.84
2023-04-10T07:08:56.123Z,8.91
2023-04-10T07:11:23.130Z,8.97
2023-04-10T07:13:53.748Z,9.06
2023-04-10T07:16:20.934Z,9.11
2023-04-10T07:18:47.872Z,9.20
2023-04-10T07:21:14.780Z,9.31
2023-04-10T07:23:42.216Z,9.38
2023-04-10T07:26:09.240Z,9.46
2023-04-10T07:28:36.622Z,9.64
2023-04-10T07:31:03.799Z,9.71
2023-04-10T07:33:30.980Z,9.83
2023-04-10T07:35:58.336Z,9.96
2023-04-10T07:38:25.555Z,10.04
2023-04-10T07:40:59.428Z,10.17
2023-04-10T07:43:26.529Z,10.31
2023-04-10T07:45:53.523Z,10.41
2023-04-10T07:48:20.577Z,10.46
2023-04-10T07:50:47.563Z,10.54
2023-04-10T07:53:14.771Z,10.61
2023-04-10T07:55:46.068Z,10.69
2023-04-10T07:58:13.013Z,10.73
2023-04-10T08:00:39.974Z,10.79
2023-04-10T08:03:07.326Z,10.89
2023-04-10T08:05:34.544Z,10.96
2023-04-10T08:08:01.528Z,11.04
2023-04-10T08:10:28.508Z,11.14
2023-04-10T08:12:55.659Z,11.21
2023-04-10T08:15:22.746Z,11.31
2023-04-10T08:17:49.955Z,11.40
2023-04-10T08:20:16.944Z,11.51
2023-04-10T08:22:43.919Z,11.62
2023-04-10T08:25:10.874Z,11.70
2023-04-10T08:27:38.093Z,11.72
2023-04-10T08:30:05.789Z,11.82
2023-04-10T08:32:32.846Z,11.91
2023-04-10T08:34:59.829Z,11.96
2023-04-10T08:37:26.939Z,12.07
2023-04-10T08:39:53.963Z,12.12
2023-04-10T08:42:22.223Z,12.19
2023-04-10T08:44:50.232Z,12.29
2023-04-10T08:47:21.621Z,12.39
2023-04-10T08:49:56.059Z,12.53
2023-04-10T08:52:29.506Z,12.59
2023-04-10T08:54:59.628Z,12.68
2023-04-10T08:57:27.988Z,12.77
2023-04-10T08:59:55.549Z,12.90
2023-04-10T09:04:55.218Z,13.06
2023-04-10T09:07:23.368Z,13.15
2023-04-10T09:09:50.397Z,13.26
2023-04-10T09:12:17.421Z,13.34
2023-04-10T09:14:44.385Z,13.43
2023-04-10T09:17:24.009Z,13.49
2023-04-10T09:19:56.256Z,13.50
2023-04-10T09:22:35.362Z,13.55
2023-04-10T09:25:04.245Z,13.65
2023-04-10T09:27:37.221Z,13.73
2023-04-10T09:30:07.030Z,13.87
2023-04-10T09:32:43.952Z,13.93
2023-04-10T09:35:13.646Z,14.02
2023-04-10T09:37:45.815Z,14.10
2023-04-10T09:40:26.146Z,14.20
2023-04-10T09:42:55.919Z,14.30
2023-04-10T09:45:23.042Z,14.37
2023-04-10T09:48:08.048Z,14.48
2023-04-10T09:50:39.911Z,14.50
2023-04-10T09:53:16.404Z,14.56
2023-04-10T09:55:44.095Z,14.68
2023-04-10T09:58:11.781Z,14.79
2023-04-10T10:00:47.837Z,14.88
2023-04-10T10:03:23.012Z,14.96
2023-04-10T10:05:51.629Z,15.10
2023-04-10T10:08:18.877Z,15.14
2023-04-10T10:10:54.005Z,15.15
2023-04-10T10:13:53.960Z,15.25
2023-04-10T10:16:46.812Z,15.22
2023-04-10T10:20:02.848Z,15.29
2023-04-10T10:22:30.451Z,15.37
2023-04-10T10:25:00.582Z,15.49
2023-04-10T10:27:31.964Z,15.51
2023-04-10T10:30:05.489Z,15.56
2023-04-10T10:32:41.170Z,15.64
2023-04-10T10:35:09.131Z,15.67
2023-04-10T10:37:37.519Z,15.76
2023-04-10T10:40:19.432Z,15.85
2023-04-10T10:43:12.195Z,15.97
2023-04-10T10:46:35.620Z,16.14
2023-04-10T10:49:02.593Z,16.28
2023-04-10T10:51:51.742Z,16.43
2023-04-10T10:54:36.585Z,16.60
2023-04-10T10:57:49.718Z,16.76
2023-04-10T11:00:16.977Z,16.87
2023-04-10T11:02:44.323Z,17.05
2023-04-10T11:05:31.945Z,17.17
2023-04-10T11:07:58.836Z,17.32
2023-04-10T11:11:05.831Z,17.34
2023-04-10T11:13:41.482Z,17.43
2023-04-10T11:16:10.757Z,17.47
2023-04-10T11:18:51.260Z,17.65
2023-04-10T11:21:23.860Z,17.94
2023-04-10T11:23:50.870Z,18.13
2023-04-10T11:26:36.731Z,18.26
2023-04-10T11:29:31.390Z,18.39
2023-04-10T11:32:08.047Z,18.50
2023-04-10T11:34:43.477Z,18.78
2023-04-10T11:37:10.665Z,18.89
2023-04-10T11:39:37.767Z,18.94
2023-04-10T11:42:05.717Z,19.21
2023-04-10T11:44:42.090Z,19.41
2023-04-10T11:47:12.938Z,19.62
2023-04-10T11:49:39.922Z,19.75
2023-04-10T11:52:07.030Z,19.81
2023-04-10T11:54:34.064Z,19.81
2023-04-10T11:57:04.536Z,19.80
2023-04-10T11:59:33.941Z,19.71
2023-04-10T12:02:15.851Z,19.83
2023-04-10T12:04:46.710Z,19.68
2023-04-10T12:07:13.792Z,19.86
2023-04-10T12:09:40.956Z,19.98
2023-04-10T12:12:08.515Z,19.99
2023-04-10T12:14:39.570Z,20.02
2023-04-10T12:17:09.199Z,19.82
2023-04-10T12:19:38.428Z,19.65
2023-04-10T12:22:06.749Z,19.65
2023-04-10T12:24:51.718Z,19.58
2023-04-10T12:27:27.487Z,19.75
2023-04-10T12:29:58.088Z,19.72
2023-04-10T12:32:27.069Z,19.64
2023-04-10T12:34:58.784Z,19.67
2023-04-10T12:37:47.119Z,19.75
2023-04-10T12:40:14.728Z,19.66
2023-04-10T12:42:42.483Z,19.60
2023-04-10T12:45:12.938Z,19.80
2023-04-10T12:47:46.947Z,19.89
2023-04-10T12:50:17.269Z,20.03
2023-04-10T12:53:01.052Z,20.01
2023-04-10T12:55:28.909Z,20.16
2023-04-10T12:57:56.920Z,20.10
2023-04-10T13:00:25.298Z,20.29
2023-04-10T13:02:52.532Z,20.33
2023-04-10T13:05:21.508Z,20.61
2023-04-10T13:07:52.660Z,20.76
2023-04-10T13:10:20.144Z,20.97
2023-04-10T13:12:47.369Z,20.80
2023-04-10T13:15:14.349Z,20.63
2023-04-10T13:17:41.678Z,20.76
2023-04-10T13:20:10.728Z,20.89
2023-04-10T13:22:37.734Z,20.72
2023-04-10T13:25:05.600Z,20.76
2023-04-10T13:27:32.620Z,20.61
2023-04-10T13:29:59.649Z,20.61
2023-04-10T13:32:26.630Z,20.70
2023-04-10T13:34:54.773Z,20.67
2023-04-10T13:37:21.757Z,20.75
2023-04-10T13:39:48.796Z,20.87
2023-04-10T13:42:15.805Z,20.79
2023-04-10T13:44:42.756Z,20.67
2023-04-10T13:47:09.813Z,20.66
2023-04-10T13:49:36.857Z,20.54
2023-04-10T13:52:03.834Z,20.68
2023-04-10T13:54:30.900Z,20.76
2023-04-10T13:56:59.321Z,20.72
2023-04-10T13:59:26.261Z,20.80
2023-04-10T14:01:53.313Z,20.57
2023-04-10T14:04:20.433Z,20.25
2023-04-10T14:06:48.004Z,20.43
2023-04-10T14:09:17.022Z,20.57
2023-04-10T14:11:43.959Z,20.60
2023-04-10T14:14:11.263Z,20.77
2023-04-10T14:16:38.232Z,20.93
2023-04-10T14:19:05.180Z,21.03
2023-04-10T14:21:32.366Z,21.01
2023-04-10T14:23:59.939Z,21.11
2023-04-10T14:26:27.122Z,21.19
2023-04-10T14:28:54.347Z,21.21
2023-04-10T14:31:21.513Z,21.09
2023-04-10T14:33:49.225Z,21.19
2023-04-10T14:36:16.308Z,20.95
2023-04-10T14:38:43.414Z,21.05
2023-04-10T14:41:10.546Z,20.93
2023-04-10T14:43:38.028Z,20.87
2023-04-10T14:46:05.259Z,20.97
2023-04-10T14:48:32.284Z,20.99
2023-04-10T14:50:59.456Z,21.05
2023-04-10T14:53:26.365Z,21.08
2023-04-10T14:55:53.303Z,21.05
2023-04-10T14:58:26.601Z,21.05
2023-04-10T15:00:53.717Z,20.96
2023-04-10T15:03:22.304Z,21.03
2023-04-10T15:05:59.975Z,20.99
2023-04-10T15:08:27.004Z,20.90
2023-04-10T15:10:54.027Z,20.90
2023-04-10T15:13:22.142Z,20.92
2023-04-10T15:15:49.605Z,20.85
2023-04-10T15:18:16.937Z,20.78
2023-04-10T15:20:44.131Z,20.74
2023-04-10T15:23:11.542Z,20.55
2023-04-10T15:25:38.489Z,20.33
2023-04-10T15:28:07.728Z,20.30
2023-04-10T15:30:34.740Z,20.27
2023-04-10T15:33:01.749Z,20.04
2023-04-10T15:35:30.371Z,19.90
2023-04-10T15:37:57.547Z,19.78
2023-04-10T15:40:24.496Z,19.68
2023-04-10T15:42:51.456Z,19.65
2023-04-10T15:45:18.685Z,19.58
2023-04-10T15:47:48.657Z,19.61
2023-04-10T15:50:15.829Z,19.54
2023-04-10T15:52:42.844Z,19.57
2023-04-10T15:55:09.888Z,19.54
2023-04-10T15:57:36.860Z,19.57
2023-04-10T16:00:04.810Z,19.57
2023-04-10T16:02:32.293Z,19.57
2023-04-10T16:04:59.465Z,19.57
2023-04-10T16:07:26.400Z,19.59
2023-04-10T16:09:55.025Z,19.59
2023-04-10T16:12:22.064Z,19.56
2023-04-10T16:14:48.988Z,19.56
2023-04-10T16:17:15.990Z,19.54
2023-04-10T16:19:42.992Z,19.54
2023-04-10T16:22:10.119Z,19.56
2023-04-10T16:24:37.036Z,19.57
2023-04-10T16:27:04.050Z,19.59
2023-04-10T16:29:31.033Z,19.57
2023-04-10T16:31:58.009Z,19.57
2023-04-10T16:34:24.959Z,19.57
2023-04-10T16:36:51.885Z,19.55
2023-04-10T16:39:18.841Z,19.51
2023-04-10T16:41:45.852Z,19.48
2023-04-10T16:44:12.827Z,19.48
2023-04-10T16:46:39.854Z,19.45
2023-04-10T16:49:06.803Z,19.39
2023-04-10T16:51:33.726Z,19.36
2023-04-10T16:54:00.642Z,19.32
2023-04-10T16:56:27.603Z,19.25
2023-04-10T16:58:54.829Z,19.20
2023-04-10T17:01:25.171Z,19.13
2023-04-10T17:03:53.392Z,19.09
2023-04-10T17:06:20.684Z,19.01
2023-04-10T17:08:47.786Z,18.96
2023-04-10T17:11:14.851Z,18.89
2023-04-10T17:13:42.210Z,18.84
2023-04-10T17:16:09.468Z,18.78
2023-04-10T17:18:36.807Z,18.72
2023-04-10T17:21:04.119Z,18.66
2023-04-10T17:23:31.137Z,18.60
2023-04-10T17:25:58.112Z,18.55
2023-04-10T17:28:25.090Z,18.48
2023-04-10T17:30:52.035Z,18.42
2023-04-10T17:33:19.169Z,18.36
2023-04-10T17:35:46.080Z,18.29
2023-04-10T17:38:13.286Z,18.24
2023-04-10T17:40:41.077Z,18.19
2023-04-10T17:43:08.487Z,18.14
2023-04-10T17:45:39.682Z,18.10
2023-04-10T17:48:07.338Z,18.05
2023-04-10T17:50:34.953Z,18.00
2023-04-10T17:53:02.198Z,17.94
2023-04-10T17:55:29.137Z,17.88
2023-04-10T17:57:58.254Z,17.82
2023-04-10T18:00:25.258Z,17.75
2023-04-10T18:02:57.966Z,17.68
2023-04-10T18:05:25.435Z,17.62
2023-04-10T18:07:52.432Z,17.56
2023-04-10T18:10:19.553Z,17.50
2023-04-10T18:12:46.549Z,17.41
2023-04-10T18:15:16.692Z,17.35
2023-04-10T18:17:43.703Z,17.29
2023-04-10T18:20:11.055Z,17.24
2023-04-10T18:22:37.994Z,17.22
2023-04-10T18:25:05.667Z,17.17
2023-04-10T18:27:34.663Z,17.10
2023-04-10T18:30:02.191Z,17.07
2023-04-10T18:32:29.294Z,17.05
2023-04-10T18:34:56.264Z,17.02
2023-04-10T18:37:23.213Z,16.98
2023-04-10T18:39:50.134Z,16.96
2023-04-10T18:42:17.189Z,16.91
2023-04-10T18:44:44.127Z,16.86
2023-04-10T18:47:11.227Z,16.78
2023-04-10T18:49:38.318Z,16.76
2023-04-10T18:52:05.462Z,16.73
2023-04-10T18:54:34.501Z,16.69
2023-04-10T18:57:01.973Z,16.63
2023-04-10T18:59:28.916Z,16.60
2023-04-10T19:01:55.908Z,16.54
2023-04-10T19:04:23.098Z,16.52
2023-04-10T19:06:51.210Z,16.49
2023-04-10T19:09:18.478Z,16.48
2023-04-10T19:11:45.524Z,16.43
2023-04-10T19:14:12.498Z,16.43
2023-04-10T19:16:39.400Z,16.40
2023-04-10T19:19:06.325Z,16.34
2023-04-10T19:21:35.987Z,16.35
2023-04-10T19:24:03.067Z,16.33
2023-04-10T19:26:30.081Z,16.32
2023-04-10T19:28:58.996Z,16.35
2023-04-10T19:31:28.770Z,16.34
2023-04-10T19:33:56.083Z,16.32
2023-04-10T19:36:23.102Z,16.32
2023-04-10T19:38:51.152Z,16.29
2023-04-10T19:41:18.426Z,16.27
2023-04-10T19:43:45.535Z,16.24
2023-04-10T19:46:17.644Z,16.20
2023-04-10T19:48:45.466Z,16.17
2023-04-10T19:51:13.188Z,16.13
2023-04-10T19:53:41.272Z,16.11
2023-04-10T19:56:08.467Z,16.08
2023-04-10T19:58:40.005Z,16.05
2023-04-10T20:01:12.257Z,16.02
2023-04-10T20:03:39.562Z,16.00
2023-04-10T20:06:07.921Z,15.97
2023-04-10T20:08:35.753Z,15.99
2023-04-10T20:11:05.984Z,15.99
2023-04-10T20:13:34.416Z,16.00
2023-04-10T20:16:01.638Z,15.96
2023-04-10T20:18:31.345Z,15.93
2023-04-10T20:20:58.306Z,15.90
2023-04-10T20:23:25.250Z,15.88
2023-04-10T20:25:52.257Z,15.87
2023-04-10T20:28:19.408Z,15.86
2023-04-10T20:30:46.350Z,15.85
2023-04-10T20:33:13.336Z,15.85
2023-04-10T20:35:40.517Z,15.86
2023-04-10T20:38:07.603Z,15.83
2023-04-10T20:40:37.453Z,15.81
2023-04-10T20:43:10.795Z,15.81
2023-04-10T20:45:38.844Z,15.82
2023-04-10T20:48:06.427Z,15.81
2023-04-10T20:50:33.561Z,15.80
2023-04-10T20:53:00.533Z,15.77
2023-04-10T20:55:27.542Z,15.73
2023-04-10T20:57:54.573Z,15.68
2023-04-10T21:00:21.660Z,15.67
2023-04-10T21:02:48.800Z,15.67
2023-04-10T21:05:15.928Z,15.66
2023-04-10T21:07:43.004Z,15.64
2023-04-10T21:10:10.327Z,15.63
2023-04-10T21:12:37.405Z,15.61
2023-04-10T21:15:04.741Z,15.59
2023-04-10T21:17:32.223Z,15.57
2023-04-10T21:19:59.591Z,15.56
2023-04-10T21:22:29.052Z,15.54
2023-04-10T21:24:56.448Z,15.53
2023-04-10T21:27:23.900Z,15.55
2023-04-10T21:29:50.905Z,15.53
2023-04-10T21:32:18.011Z,15.56
2023-04-10T21:34:44.987Z,15.54
2023-04-10T21:37:12.012Z,15.51
2023-04-10T21:39:42.030Z,15.51
2023-04-10T21:42:08.980Z,15.51
2023-04-10T21:44:35.987Z,15.51
2023-04-10T21:47:03.026Z,15.49
2023-04-10T21:49:30.003Z,15.48
2023-04-10T21:51:59.027Z,15.48
2023-04-10T21:54:26.025Z,15.47
2023-04-10T21:56:53.004Z,15.46
2023-04-10T21:59:19.996Z,15.45
2023-04-10T22:01:47.063Z,15.43
2023-04-10T22:04:14.275Z,15.40
2023-04-10T22:06:41.363Z,15.38
2023-04-10T22:09:08.332Z,15.34
2023-04-10T22:11:35.943Z,15.32
2023-04-10T22:14:13.070Z,15.28
2023-04-10T22:16:44.411Z,15.25
2023-04-10T22:19:11.458Z,15.22
2023-04-10T22:21:38.407Z,15.20
2023-04-10T22:24:06.137Z,15.17
2023-04-10T22:26:35.009Z,15.14
2023-04-10T22:29:03.945Z,15.13
2023-04-10T22:31:31.043Z,15.11
2023-04-10T22:33:58.009Z,15.09
2023-04-10T22:36:30.597Z,15.09
2023-04-10T22:38:57.540Z,15.06
2023-04-10T22:41:24.516Z,15.05
2023-04-10T22:43:51.589Z,15.04
2023-04-10T22:46:18.695Z,15.03
2023-04-10T22:48:46.916Z,15.01
2023-04-10T22:51:14.882Z,15.01
2023-04-10T22:53:41.891Z,14.99
2023-04-10T22:56:10.510Z,14.98
2023-04-10T22:58:39.323Z,14.97
2023-04-10T23:01:08.113Z,14.94
2023-04-10T23:03:35.643Z,14.94
2023-04-10T23:06:02.904Z,14.92
2023-04-10T23:08:29.818Z,14.89
2023-04-10T23:10:56.894Z,14.87
2023-04-10T23:13:23.860Z,14.81
2023-04-10T23:15:52.416Z,14.71
2023-04-10T23:18:19.583Z,14.61
2023-04-10T23:20:47.664Z,14.48
2023-04-10T23:23:15.504Z,14.36
2023-04-10T23:25:42.853Z,14.27
2023-04-10T23:28:09.803Z,14.18
2023-04-10T23:30:37.173Z,14.09
2023-04-10T23:33:04.380Z,14.01
2023-04-10T23:35:31.380Z,13.92
2023-04-10T23:37:58.315Z,13.84
2023-04-10T23:40:25.295Z,13.77
2023-04-10T23:42:52.259Z,13.69
2023-04-10T23:45:19.311Z,13.63
2023-04-10T23:47:47.300Z,13.56
2023-04-10T23:50:15.228Z,13.52
2023-04-10T23:52:42.217Z,13.49
2023-04-10T23:55:09.490Z,13.43
2023-04-10T23:57:36.430Z,13.38
